KCMA

Camarillo Airport

Camarillo, California, USA
METAR KCMA 150255Z 26006KT 10SM CLR 22/16 A2984 RMK AO2 SLP111 T02220161 55000
Observed Flight Rules
Aug-15 @ 02:55 UTC (42 minutes ago) Visual Flight Rules
Wind Visibility Clouds
260° at 6 knots 10 miles
  • Clear skies
Temperatures Readings
Current 22°C / 72°F
Dewpoint 16°C / 61°F
Humidity 69%
Altimeter 29.84" Hg
Pressure 1011.1 hPa
Elevation 23
METAR KCMA 150255Z 26006KT 10SM CLR 22/16 A2984 RMK AO2 SLP111 T02220161 55000
Observed Flight Rules
Aug-15 @ 02:55 UTC
(42 minutes ago)
VFR
Wind Visibility
260° at 6 knots 10 miles
Clouds
  • Clear skies
Temperature Dewpoint
22°C / 72°F 16°C / 61°F
Humidity Altimeter Pressure
69% 29.84" Hg 1011.1 hPa